Urb Ana Maria, Puerto Rico
Current Conditions -  °F | °C
As of 8:50 PM on Wednesday 26 Nov 2014 (Local Time) from TJBQ Reporting Station
Scattered Clouds Scattered Clouds  
Wind Chill: 77°   Ceiling: Unl
Heat Index: 78°   Visibility: 10mi
Dew Point: 72°   Wind: 13mph
Humidity: 83%   Direction: 90°E
Pressure: 30.03"   Gusts: NA
Location:  18.0849°N, 67.1633°W
Report Text: TJBQ 270050Z 09011KT 10SM SCT022 SCT044 25/22 A3003 RMK TOWER CLOSED TILL 0600Z
Loading
Personal Weather Stations






























Interactive Weather Map New forecast layout! Learn more

10-Day Weather Forecast

Advertisements
Track Severe Weather on mobile